Time;durP1;ratioP1;P1;durP2;ratioP2;P2;SDS_P1;SDS_P2;PMS_P1;PMS_P2;Temp;Humidity;BMP_temperature;BMP_pressure;BME280_temperature;BME280_humidity;BME280_pressure;Samples;Min_cycle;Max_cycle;Signal;HPM_P1;HPM_P2
2023/08/31 00:00:41;;;;;;;11.13;9.55;;;;;;;;;;4957373;28;20113;-76
2023/08/31 00:03:08;;;;;;;12.32;9.32;;;;;;;;;;4922178;29;20078;-76
2023/08/31 00:05:40;;;;;;;12.52;10.13;;;;;;;;;;4938225;29;20028;-77
2023/08/31 00:08:06;;;;;;;13.38;10.35;;;;;;;;;;4954191;29;20031;-76
2023/08/31 00:10:33;;;;;;;12.15;9.82;;;;;;;;;;4954115;29;20126;-76
2023/08/31 00:12:59;;;;;;;12.63;11.23;;;;;;;;;;4938039;29;20471;-77
2023/08/31 00:15:25;;;;;;;12.60;9.35;;;;;;;;;;4953613;29;20035;-76
2023/08/31 00:17:51;;;;;;;13.80;11.13;;;;;;;;;;4969926;28;20538;-76
2023/08/31 00:20:17;;;;;;;15.27;11.52;;;;;;;;;;4954572;29;20094;-75
2023/08/31 00:22:43;;;;;;;15.93;11.35;;;;;;;;;;4953798;29;20038;-76
2023/08/31 00:25:09;;;;;;;15.57;11.18;;;;;;;;;;4955173;28;20039;-76
2023/08/31 00:27:37;;;;;;;15.70;11.32;;;;;;;;;;4955659;29;20043;-75
2023/08/31 00:30:08;;;;;;;15.00;10.70;;;;;;;;;;4955513;29;20047;-77
2023/08/31 00:32:34;;;;;;;13.48;10.13;;;;;;;;;;4953545;28;20031;-76
2023/08/31 00:35:02;;;;;;;13.73;11.38;;;;;;;;;;4954812;29;20042;-76
2023/08/31 00:37:29;;;;;;;13.30;10.05;;;;;;;;;;4969066;28;20169;-75
2023/08/31 00:39:55;;;;;;;10.75;9.65;;;;;;;;;;4953223;29;20126;-76
2023/08/31 00:42:21;;;;;;;11.82;9.40;;;;;;;;;;4953065;29;20034;-75
2023/08/31 00:44:48;;;;;;;10.45;9.23;;;;;;;;;;4969462;28;20050;-77
2023/08/31 00:47:14;;;;;;;12.50;9.60;;;;;;;;;;4953658;28;20035;-77
2023/08/31 00:49:40;;;;;;;9.25;8.25;;;;;;;;;;4955194;29;20135;-76
2023/08/31 00:52:07;;;;;;;11.27;9.55;;;;;;;;;;4969643;28;20518;-76
2023/08/31 00:54:33;;;;;;;13.45;9.85;;;;;;;;;;4969565;28;20456;-77
2023/08/31 00:57:00;;;;;;;11.00;9.90;;;;;;;;;;4953952;28;20039;-76
2023/08/31 00:59:29;;;;;;;12.48;9.85;;;;;;;;;;4938348;29;20035;-76
2023/08/31 01:01:56;;;;;;;10.43;9.23;;;;;;;;;;4958350;29;20520;-75
2023/08/31 01:04:23;;;;;;;14.45;9.45;;;;;;;;;;4967657;29;20161;-77
2023/08/31 01:06:56;;;;;;;19.70;10.07;;;;;;;;;;4969290;28;20063;-76
2023/08/31 01:09:28;;;;;;;13.32;10.23;;;;;;;;;;4953305;29;20035;-77
2023/08/31 01:12:03;;;;;;;12.48;10.48;;;;;;;;;;4953407;29;20099;-76
2023/08/31 01:14:42;;;;;;;15.98;10.55;;;;;;;;;;4921238;29;20049;-76
2023/08/31 01:17:08;;;;;;;12.15;10.85;;;;;;;;;;4952793;29;20042;-78
2023/08/31 01:19:48;;;;;;;13.68;11.80;;;;;;;;;;4936887;29;20043;-75
2023/08/31 01:22:33;;;;;;;15.77;12.00;;;;;;;;;;4952955;29;20035;-77
2023/08/31 01:25:03;;;;;;;15.18;12.00;;;;;;;;;;4953391;29;20122;-77
2023/08/31 01:27:31;;;;;;;18.13;11.85;;;;;;;;;;4952393;29;20130;-75
2023/08/31 01:29:57;;;;;;;14.80;10.55;;;;;;;;;;4954828;29;20067;-76
2023/08/31 01:32:30;;;;;;;14.40;10.77;;;;;;;;;;4953884;29;20066;-75
2023/08/31 01:35:01;;;;;;;13.77;11.05;;;;;;;;;;4937275;29;20507;-77
2023/08/31 01:37:31;;;;;;;13.10;11.63;;;;;;;;;;4952643;29;20511;-76
2023/08/31 01:39:59;;;;;;;20.65;12.10;;;;;;;;;;4953802;29;20035;-76
2023/08/31 01:42:25;;;;;;;13.45;12.02;;;;;;;;;;4952619;29;20035;-75
2023/08/31 01:44:51;;;;;;;16.63;11.93;;;;;;;;;;4951904;28;20035;-76
2023/08/31 01:47:19;;;;;;;14.98;12.48;;;;;;;;;;4952510;28;20043;-76
2023/08/31 01:49:45;;;;;;;13.02;11.57;;;;;;;;;;4953790;29;20397;-75
2023/08/31 01:52:11;;;;;;;17.48;12.93;;;;;;;;;;4952334;29;20508;-76
2023/08/31 01:54:37;;;;;;;15.93;13.25;;;;;;;;;;4954063;29;20042;-76
2023/08/31 01:57:04;;;;;;;13.13;11.48;;;;;;;;;;4952549;29;20388;-76
2023/08/31 01:59:31;;;;;;;18.92;11.30;;;;;;;;;;4952068;28;20043;-76
2023/08/31 02:01:58;;;;;;;15.25;13.32;;;;;;;;;;4967902;28;20066;-76
2023/08/31 02:04:24;;;;;;;15.05;12.88;;;;;;;;;;4968252;28;20102;-75
2023/08/31 02:06:50;;;;;;;17.20;13.50;;;;;;;;;;4968279;28;20042;-78
2023/08/31 02:09:16;;;;;;;16.08;12.60;;;;;;;;;;4935682;29;20133;-77
2023/08/31 02:11:42;;;;;;;22.08;13.80;;;;;;;;;;4953464;29;20054;-76
2023/08/31 02:14:08;;;;;;;15.25;13.52;;;;;;;;;;4935722;29;20500;-78
2023/08/31 02:16:34;;;;;;;17.40;12.57;;;;;;;;;;4951811;29;20602;-77
2023/08/31 02:19:00;;;;;;;20.42;14.10;;;;;;;;;;4953262;29;20113;-77
2023/08/31 02:21:26;;;;;;;17.92;14.25;;;;;;;;;;4967586;28;20114;-76
2023/08/31 02:23:53;;;;;;;17.20;13.75;;;;;;;;;;4936010;29;20051;-77
2023/08/31 02:26:20;;;;;;;17.85;12.90;;;;;;;;;;4953051;29;20028;-78
2023/08/31 02:28:47;;;;;;;21.60;16.45;;;;;;;;;;4967955;28;20047;-77
2023/08/31 02:31:13;;;;;;;17.65;15.40;;;;;;;;;;4951235;29;20042;-76
2023/08/31 02:33:40;;;;;;;20.98;15.13;;;;;;;;;;4967552;28;20523;-77
2023/08/31 02:36:08;;;;;;;16.17;14.45;;;;;;;;;;4953007;29;20032;-76
2023/08/31 02:38:37;;;;;;;20.30;15.45;;;;;;;;;;4967461;28;20047;-77
2023/08/31 02:41:06;;;;;;;17.35;13.93;;;;;;;;;;4967733;28;20046;-76
2023/08/31 02:43:33;;;;;;;19.95;14.38;;;;;;;;;;4967939;28;20062;-77
2023/08/31 02:46:00;;;;;;;17.13;14.27;;;;;;;;;;4952782;29;20035;-76
2023/08/31 02:48:27;;;;;;;19.65;14.07;;;;;;;;;;4952319;28;20070;-79
2023/08/31 02:50:54;;;;;;;20.50;14.82;;;;;;;;;;4951473;29;20070;-76
2023/08/31 02:53:20;;;;;;;16.42;14.13;;;;;;;;;;4935668;29;20035;-76
2023/08/31 02:55:46;;;;;;;16.27;14.48;;;;;;;;;;4955012;28;20031;-76
2023/08/31 02:58:12;;;;;;;14.18;12.70;;;;;;;;;;4957811;28;20423;-76
2023/08/31 03:00:42;;;;;;;21.38;13.43;;;;;;;;;;4940969;28;20031;-77
2023/08/31 03:03:08;;;;;;;15.60;12.93;;;;;;;;;;4957502;29;20055;-78
2023/08/31 03:05:35;;;;;;;16.70;12.25;;;;;;;;;;4958798;28;20041;-77
2023/08/31 03:08:01;;;;;;;13.93;11.48;;;;;;;;;;4942033;29;20142;-78
2023/08/31 03:10:27;;;;;;;14.02;12.35;;;;;;;;;;4973516;28;20098;-76
2023/08/31 03:12:53;;;;;;;16.25;11.52;;;;;;;;;;4958201;29;20055;-76
2023/08/31 03:15:20;;;;;;;14.65;11.73;;;;;;;;;;4973937;28;20039;-76
2023/08/31 03:17:46;;;;;;;12.73;11.48;;;;;;;;;;4941541;29;20027;-78
2023/08/31 03:20:12;;;;;;;12.50;10.70;;;;;;;;;;4957698;28;20111;-76
2023/08/31 03:22:38;;;;;;;18.00;11.10;;;;;;;;;;4925795;29;20057;-77
2023/08/31 03:25:05;;;;;;;10.20;9.30;;;;;;;;;;4959076;29;20043;-78
2023/08/31 03:27:31;;;;;;;13.23;9.95;;;;;;;;;;4958742;28;20066;-76
2023/08/31 03:29:57;;;;;;;12.07;10.57;;;;;;;;;;4957174;29;20076;-77
2023/08/31 03:32:26;;;;;;;12.05;10.10;;;;;;;;;;4958861;29;20438;-78
2023/08/31 03:34:52;;;;;;;11.13;9.93;;;;;;;;;;4958637;28;20042;-79
2023/08/31 03:37:19;;;;;;;12.70;10.07;;;;;;;;;;4957503;28;20101;-77
2023/08/31 03:39:47;;;;;;;10.95;9.43;;;;;;;;;;4957601;29;20046;-78
2023/08/31 03:42:13;;;;;;;14.50;11.13;;;;;;;;;;4973442;28;20035;-76
2023/08/31 03:44:39;;;;;;;14.27;10.07;;;;;;;;;;4958009;29;20121;-78
2023/08/31 03:47:06;;;;;;;13.57;10.70;;;;;;;;;;4957284;29;20039;-77
2023/08/31 03:49:33;;;;;;;17.70;10.95;;;;;;;;;;4972949;28;20039;-78
2023/08/31 03:51:59;;;;;;;13.70;10.43;;;;;;;;;;4958520;28;20035;-77
2023/08/31 03:54:26;;;;;;;12.65;10.23;;;;;;;;;;4940826;29;20503;-77
2023/08/31 03:56:52;;;;;;;11.73;10.57;;;;;;;;;;4957412;28;20121;-78
2023/08/31 03:59:18;;;;;;;17.42;11.60;;;;;;;;;;4973300;28;20042;-79
2023/08/31 04:01:46;;;;;;;12.27;11.02;;;;;;;;;;4957566;28;20062;-78
2023/08/31 04:04:13;;;;;;;18.25;10.88;;;;;;;;;;4973753;28;20062;-79
2023/08/31 04:06:39;;;;;;;11.63;10.50;;;;;;;;;;4972422;28;20038;-78
2023/08/31 04:09:06;;;;;;;24.08;10.80;;;;;;;;;;4958483;28;20054;-79
2023/08/31 04:11:33;;;;;;;12.07;10.55;;;;;;;;;;4969358;29;20038;-77
2023/08/31 04:13:59;;;;;;;15.30;11.63;;;;;;;;;;4938921;29;20098;-78
2023/08/31 04:16:25;;;;;;;13.05;10.43;;;;;;;;;;4958189;29;20047;-77
2023/08/31 04:18:52;;;;;;;10.65;9.68;;;;;;;;;;4970127;28;20038;-77
2023/08/31 04:21:21;;;;;;;19.55;10.50;;;;;;;;;;4953952;29;20031;-78
2023/08/31 04:23:47;;;;;;;14.15;9.40;;;;;;;;;;4937503;29;20622;-78
2023/08/31 04:26:13;;;;;;;14.90;11.05;;;;;;;;;;4937865;29;20035;-78
2023/08/31 04:28:40;;;;;;;12.32;10.85;;;;;;;;;;4969335;28;20534;-77
2023/08/31 04:31:07;;;;;;;17.35;10.70;;;;;;;;;;4954703;29;20041;-79
2023/08/31 04:33:36;;;;;;;12.50;10.52;;;;;;;;;;4954315;29;20423;-78
2023/08/31 04:36:04;;;;;;;16.43;9.20;;;;;;;;;;4954856;28;20031;-77
2023/08/31 04:38:37;;;;;;;10.75;9.77;;;;;;;;;;4954338;28;20057;-77
2023/08/31 04:41:03;;;;;;;10.52;8.98;;;;;;;;;;4937411;29;20563;-78
2023/08/31 04:43:30;;;;;;;13.93;10.45;;;;;;;;;;4954197;28;20047;-76
2023/08/31 04:45:55;;;;;;;11.73;9.32;;;;;;;;;;4954310;29;20061;-77
2023/08/31 04:48:22;;;;;;;12.18;9.93;;;;;;;;;;4954044;28;20039;-77
2023/08/31 04:50:48;;;;;;;18.73;10.15;;;;;;;;;;4954401;28;20031;-79
2023/08/31 04:53:14;;;;;;;18.02;9.60;;;;;;;;;;4954568;29;20411;-78
2023/08/31 04:55:40;;;;;;;14.32;10.32;;;;;;;;;;4952535;29;20126;-78
2023/08/31 04:58:06;;;;;;;11.27;9.63;;;;;;;;;;4954461;29;20113;-77
2023/08/31 05:00:32;;;;;;;12.07;9.02;;;;;;;;;;4953791;28;20043;-78
2023/08/31 05:02:58;;;;;;;11.40;9.57;;;;;;;;;;4969088;28;20061;-79
2023/08/31 05:05:25;;;;;;;11.15;9.30;;;;;;;;;;4973260;28;20045;-78
2023/08/31 05:07:51;;;;;;;13.20;10.27;;;;;;;;;;4973265;28;20043;-78
2023/08/31 05:10:17;;;;;;;13.40;9.90;;;;;;;;;;4955902;28;20066;-78
2023/08/31 05:12:43;;;;;;;12.60;9.90;;;;;;;;;;4923718;28;20062;-79
2023/08/31 05:15:09;;;;;;;22.17;10.23;;;;;;;;;;4955888;28;20049;-79
2023/08/31 05:17:35;;;;;;;11.60;9.45;;;;;;;;;;4972914;28;20043;-78
2023/08/31 05:20:04;;;;;;;12.23;9.35;;;;;;;;;;4954844;28;20035;-79
2023/08/31 05:22:30;;;;;;;14.30;8.02;;;;;;;;;;4972947;28;20047;-76
2023/08/31 05:24:56;;;;;;;10.18;9.18;;;;;;;;;;4971615;28;20050;-78
2023/08/31 05:27:22;;;;;;;10.75;9.68;;;;;;;;;;4940311;28;20415;-80
2023/08/31 05:29:49;;;;;;;15.75;9.27;;;;;;;;;;4972549;28;20039;-78
2023/08/31 05:32:15;;;;;;;10.88;9.52;;;;;;;;;;4972935;28;20042;-79
2023/08/31 05:34:41;;;;;;;11.57;10.35;;;;;;;;;;4972951;28;20043;-79
2023/08/31 05:37:07;;;;;;;11.95;10.73;;;;;;;;;;4972964;28;20522;-79
2023/08/31 05:39:33;;;;;;;10.65;9.63;;;;;;;;;;4972519;28;20042;-79
2023/08/31 05:41:59;;;;;;;10.95;8.32;;;;;;;;;;4971817;28;20086;-79
2023/08/31 05:44:26;;;;;;;12.90;8.52;;;;;;;;;;4971461;28;20050;-79
2023/08/31 05:46:51;;;;;;;11.73;8.85;;;;;;;;;;4955668;28;20395;-79
2023/08/31 05:49:18;;;;;;;10.57;8.60;;;;;;;;;;4955341;28;20554;-78
2023/08/31 05:51:44;;;;;;;13.82;9.02;;;;;;;;;;4972496;28;20031;-79
2023/08/31 05:54:12;;;;;;;11.98;9.07;;;;;;;;;;4939287;28;20061;-77
2023/08/31 05:56:40;;;;;;;18.60;9.00;;;;;;;;;;4971819;28;20073;-79
2023/08/31 05:59:06;;;;;;;11.98;9.07;;;;;;;;;;4972672;28;20049;-79
2023/08/31 06:01:32;;;;;;;10.68;8.93;;;;;;;;;;4972043;28;20046;-80
2023/08/31 06:03:59;;;;;;;15.13;9.27;;;;;;;;;;4972370;28;20498;-79
2023/08/31 06:06:25;;;;;;;12.88;8.82;;;;;;;;;;4972409;28;20434;-77
2023/08/31 06:08:51;;;;;;;9.50;8.70;;;;;;;;;;4972319;28;20122;-79
2023/08/31 06:11:18;;;;;;;18.10;9.20;;;;;;;;;;4972290;28;20563;-79
2023/08/31 06:13:45;;;;;;;9.43;8.43;;;;;;;;;;4954528;28;20069;-79
2023/08/31 06:16:10;;;;;;;10.95;8.27;;;;;;;;;;4972458;28;20121;-78
2023/08/31 06:18:37;;;;;;;10.38;8.88;;;;;;;;;;4972381;28;20046;-78
2023/08/31 06:21:03;;;;;;;11.82;8.00;;;;;;;;;;4955326;28;20056;-79
2023/08/31 06:23:29;;;;;;;19.92;15.43;;;;;;;;;;4955144;28;20565;-79
2023/08/31 06:25:55;;;;;;;10.60;9.60;;;;;;;;;;4939414;28;20043;-77
2023/08/31 06:28:21;;;;;;;11.77;8.77;;;;;;;;;;4955080;28;20050;-79
2023/08/31 06:30:47;;;;;;;12.68;8.60;;;;;;;;;;4970434;28;21148;-78
2023/08/31 06:33:14;;;;;;;13.52;8.80;;;;;;;;;;4972381;28;20415;-80
2023/08/31 06:35:40;;;;;;;9.98;7.80;;;;;;;;;;4938730;28;20034;-78
2023/08/31 06:38:06;;;;;;;9.82;8.18;;;;;;;;;;4971782;28;20566;-79
2023/08/31 06:40:33;;;;;;;13.95;8.68;;;;;;;;;;4971981;28;20307;-79
2023/08/31 06:43:00;;;;;;;9.65;7.15;;;;;;;;;;4971582;28;20087;-80
2023/08/31 06:45:26;;;;;;;10.15;7.20;;;;;;;;;;4972045;28;20073;-79
2023/08/31 06:47:53;;;;;;;14.68;8.20;;;;;;;;;;4971610;28;20418;-79
2023/08/31 06:50:19;;;;;;;12.73;8.80;;;;;;;;;;4971866;28;20459;-78
2023/08/31 06:52:46;;;;;;;11.10;6.95;;;;;;;;;;4954459;28;20133;-78
2023/08/31 06:55:12;;;;;;;13.60;6.97;;;;;;;;;;4954508;28;20053;-78
2023/08/31 06:57:38;;;;;;;7.63;6.75;;;;;;;;;;4971728;28;20043;-79
2023/08/31 07:00:07;;;;;;;9.55;6.32;;;;;;;;;;4954408;28;20031;-78
2023/08/31 07:02:34;;;;;;;8.73;6.93;;;;;;;;;;4971774;28;20070;-79
2023/08/31 07:05:01;;;;;;;11.02;6.70;;;;;;;;;;4972137;28;20598;-79
2023/08/31 07:07:27;;;;;;;14.45;6.70;;;;;;;;;;4972630;28;20049;-79
2023/08/31 07:09:54;;;;;;;8.63;6.30;;;;;;;;;;4978577;28;20042;-77
2023/08/31 07:12:20;;;;;;;9.82;6.13;;;;;;;;;;4980744;28;20035;-78
2023/08/31 07:14:47;;;;;;;19.75;13.55;;;;;;;;;;4957457;28;20053;-80
2023/08/31 07:17:13;;;;;;;8.70;6.85;;;;;;;;;;4971359;28;20043;-79
2023/08/31 07:19:39;;;;;;;18.90;7.57;;;;;;;;;;4972200;28;20053;-78
2023/08/31 07:22:08;;;;;;;14.82;5.57;;;;;;;;;;4923603;28;20522;-80
2023/08/31 07:24:36;;;;;;;13.73;7.95;;;;;;;;;;4954080;28;20412;-80
2023/08/31 07:27:03;;;;;;;7.85;6.10;;;;;;;;;;4954590;28;20565;-79
2023/08/31 07:29:31;;;;;;;6.30;5.25;;;;;;;;;;4970362;28;20043;-77
2023/08/31 07:31:57;;;;;;;11.80;6.50;;;;;;;;;;4938738;28;20066;-79
2023/08/31 07:34:23;;;;;;;10.77;6.28;;;;;;;;;;4972398;28;20038;-79
2023/08/31 07:36:49;;;;;;;6.85;6.07;;;;;;;;;;4955209;28;20530;-79
2023/08/31 07:39:18;;;;;;;9.00;5.82;;;;;;;;;;4970900;28;20134;-79
2023/08/31 07:41:44;;;;;;;8.70;6.43;;;;;;;;;;4971532;28;20050;-80
2023/08/31 07:44:10;;;;;;;9.82;6.05;;;;;;;;;;4974838;28;20047;-79
2023/08/31 07:46:37;;;;;;;8.38;5.32;;;;;;;;;;4974803;28;20039;-78
2023/08/31 07:49:04;;;;;;;7.07;5.28;;;;;;;;;;4958170;28;20088;-80
2023/08/31 07:51:30;;;;;;;10.73;5.85;;;;;;;;;;4941929;28;20038;-79
2023/08/31 07:53:55;;;;;;;10.40;6.18;;;;;;;;;;4975637;28;20093;-80
2023/08/31 07:56:22;;;;;;;8.93;5.97;;;;;;;;;;4942932;28;20050;-79
2023/08/31 07:58:48;;;;;;;7.50;5.20;;;;;;;;;;4957919;28;20030;-79
2023/08/31 08:01:14;;;;;;;6.78;6.00;;;;;;;;;;4974237;28;20038;-80
2023/08/31 08:03:40;;;;;;;10.18;6.43;;;;;;;;;;4975459;28;20062;-79
2023/08/31 08:06:06;;;;;;;10.18;6.15;;;;;;;;;;4974564;28;20126;-78
2023/08/31 08:08:32;;;;;;;5.68;5.07;;;;;;;;;;4957443;28;20049;-79
2023/08/31 08:10:59;;;;;;;6.03;4.70;;;;;;;;;;4974874;28;20113;-80
2023/08/31 08:13:25;;;;;;;9.55;5.22;;;;;;;;;;4974862;28;20037;-79
2023/08/31 08:19:07;;;;;;;6.55;5.32;;;;;;;;;;4956702;28;20039;-79
2023/08/31 08:21:34;;;;;;;9.63;5.80;;;;;;;;;;4940637;28;20035;-80
2023/08/31 08:24:03;;;;;;;11.45;5.97;;;;;;;;;;4940926;28;20078;-79
2023/08/31 08:26:29;;;;;;;10.82;5.47;;;;;;;;;;4924766;28;20039;-78
2023/08/31 08:28:55;;;;;;;8.40;5.15;;;;;;;;;;4908763;28;20197;-79
2023/08/31 08:31:21;;;;;;;9.13;5.38;;;;;;;;;;4924782;28;20046;-79
2023/08/31 08:33:47;;;;;;;10.38;5.13;;;;;;;;;;4973626;28;20498;-78
2023/08/31 08:36:16;;;;;;;10.93;5.38;;;;;;;;;;4908523;28;20034;-80
2023/08/31 08:38:42;;;;;;;6.22;5.60;;;;;;;;;;4908844;28;20063;-80
2023/08/31 08:41:08;;;;;;;6.22;4.93;;;;;;;;;;4924354;28;20042;-80
2023/08/31 08:43:35;;;;;;;8.80;5.57;;;;;;;;;;4955970;28;20066;-80
2023/08/31 08:46:04;;;;;;;8.85;5.15;;;;;;;;;;4908968;28;20125;-80
2023/08/31 08:48:30;;;;;;;4.35;3.95;;;;;;;;;;4924395;28;20031;-79
2023/08/31 08:50:59;;;;;;;7.63;5.63;;;;;;;;;;4923929;28;20593;-80
2023/08/31 08:53:25;;;;;;;7.35;4.78;;;;;;;;;;4908254;28;20042;-79
2023/08/31 08:55:59;;;;;;;10.25;5.22;;;;;;;;;;4941844;28;20464;-80
2023/08/31 08:58:31;;;;;;;14.90;5.40;;;;;;;;;;4925977;28;20043;-78
2023/08/31 09:01:06;;;;;;;4.20;3.78;;;;;;;;;;4942286;28;20046;-79
2023/08/31 09:03:32;;;;;;;8.25;4.80;;;;;;;;;;4902526;29;20056;-79
2023/08/31 09:06:24;;;;;;;10.75;5.57;;;;;;;;;;4921434;29;20042;-80
2023/08/31 09:08:59;;;;;;;6.55;5.00;;;;;;;;;;4886293;29;20040;-80
2023/08/31 09:11:26;;;;;;;5.68;5.18;;;;;;;;;;4917225;29;20028;-79
2023/08/31 09:13:52;;;;;;;5.90;4.88;;;;;;;;;;4886312;29;20039;-80
2023/08/31 09:16:28;;;;;;;5.40;4.80;;;;;;;;;;4886550;29;20693;-79
2023/08/31 09:19:19;;;;;;;9.05;5.18;;;;;;;;;;4921548;29;20419;-79
2023/08/31 09:21:46;;;;;;;11.68;5.07;;;;;;;;;;4901121;29;20492;-78
2023/08/31 09:24:13;;;;;;;6.10;5.13;;;;;;;;;;4885224;29;20517;-79
2023/08/31 09:26:40;;;;;;;7.70;4.47;;;;;;;;;;4885693;29;20480;-77
2023/08/31 09:29:06;;;;;;;8.52;4.97;;;;;;;;;;4885576;29;20428;-77
2023/08/31 09:31:36;;;;;;;8.02;6.07;;;;;;;;;;4933023;29;20035;-79
2023/08/31 09:34:03;;;;;;;15.70;5.07;;;;;;;;;;4916705;29;20547;-79
2023/08/31 09:36:29;;;;;;;7.47;4.80;;;;;;;;;;4933309;29;20046;-79
2023/08/31 09:38:58;;;;;;;11.98;6.05;;;;;;;;;;4885509;29;20032;-79
2023/08/31 09:41:24;;;;;;;8.13;4.63;;;;;;;;;;4885764;29;20042;-80
2023/08/31 09:44:14;;;;;;;5.05;4.55;;;;;;;;;;4903110;29;20279;-79
2023/08/31 09:46:40;;;;;;;8.70;5.25;;;;;;;;;;4885243;29;20129;-79
2023/08/31 09:49:07;;;;;;;7.88;4.70;;;;;;;;;;4900315;29;20071;-79
2023/08/31 09:51:36;;;;;;;4.80;4.40;;;;;;;;;;4886504;29;20550;-79
2023/08/31 09:54:02;;;;;;;4.97;4.57;;;;;;;;;;4885811;29;20273;-79
2023/08/31 09:56:28;;;;;;;6.32;5.63;;;;;;;;;;4901754;29;20176;-79
2023/08/31 09:58:54;;;;;;;6.18;4.85;;;;;;;;;;4901545;29;20043;-79
2023/08/31 10:01:20;;;;;;;5.80;5.30;;;;;;;;;;4888206;28;20055;-79
2023/08/31 10:03:46;;;;;;;6.30;4.95;;;;;;;;;;4931895;28;20049;-78
2023/08/31 10:06:12;;;;;;;7.20;4.35;;;;;;;;;;4951934;28;20427;-78
2023/08/31 10:08:39;;;;;;;7.25;5.55;;;;;;;;;;4926400;28;20066;-80
2023/08/31 10:11:05;;;;;;;9.77;5.05;;;;;;;;;;4922643;28;20031;-79
2023/08/31 10:13:32;;;;;;;15.57;5.50;;;;;;;;;;4923040;28;20034;-80
2023/08/31 10:16:01;;;;;;;6.30;5.18;;;;;;;;;;4921549;28;20497;-79
2023/08/31 10:18:39;;;;;;;8.30;5.07;;;;;;;;;;4940583;28;20059;-79
2023/08/31 10:21:06;;;;;;;4.78;4.18;;;;;;;;;;4922354;28;20046;-79
2023/08/31 10:23:31;;;;;;;8.48;5.63;;;;;;;;;;4905893;28;20050;-80
2023/08/31 10:25:57;;;;;;;12.85;5.35;;;;;;;;;;4922253;28;20388;-79
2023/08/31 10:28:24;;;;;;;7.43;5.30;;;;;;;;;;4954179;28;20039;-79
2023/08/31 10:31:09;;;;;;;14.27;4.90;;;;;;;;;;4922217;28;20410;-80
2023/08/31 10:33:49;;;;;;;6.03;5.07;;;;;;;;;;4907597;28;20038;-79
2023/08/31 10:36:17;;;;;;;6.13;5.10;;;;;;;;;;4939629;28;20043;-80
2023/08/31 10:38:45;;;;;;;6.95;5.35;;;;;;;;;;4922983;28;20104;-79
2023/08/31 10:41:15;;;;;;;13.38;5.22;;;;;;;;;;4922949;28;20038;-79
2023/08/31 10:43:51;;;;;;;4.93;4.50;;;;;;;;;;4954988;28;20058;-80
2023/08/31 10:46:38;;;;;;;6.38;4.43;;;;;;;;;;4923082;28;20129;-79
2023/08/31 10:49:09;;;;;;;6.47;4.80;;;;;;;;;;4939234;28;20469;-79
2023/08/31 10:51:36;;;;;;;5.47;4.97;;;;;;;;;;4964343;28;20388;-78
2023/08/31 10:54:09;;;;;;;5.20;4.80;;;;;;;;;;4906765;28;20089;-80
2023/08/31 10:56:54;;;;;;;5.30;4.80;;;;;;;;;;4971489;28;20038;-79
2023/08/31 10:59:23;;;;;;;7.53;4.97;;;;;;;;;;4939344;28;20090;-79
2023/08/31 11:01:56;;;;;;;6.10;4.78;;;;;;;;;;4922197;28;20043;-79
2023/08/31 11:04:23;;;;;;;6.80;5.05;;;;;;;;;;4926380;28;20093;-77
2023/08/31 11:07:13;;;;;;;7.95;5.10;;;;;;;;;;4927545;28;20034;-81
2023/08/31 11:09:39;;;;;;;9.38;5.10;;;;;;;;;;4931774;28;20045;-79
2023/08/31 11:12:05;;;;;;;7.10;4.45;;;;;;;;;;4923477;28;20093;-79
2023/08/31 11:14:31;;;;;;;9.82;4.85;;;;;;;;;;4923834;28;20126;-79
2023/08/31 11:17:02;;;;;;;5.28;4.38;;;;;;;;;;4926482;28;20530;-79
2023/08/31 11:19:37;;;;;;;5.25;4.80;;;;;;;;;;4928851;28;20041;-79
2023/08/31 11:22:11;;;;;;;9.45;3.40;;;;;;;;;;4926633;28;20043;-79
2023/08/31 11:25:03;;;;;;;5.55;4.03;;;;;;;;;;4932109;28;20256;-79
2023/08/31 11:27:29;;;;;;;4.45;4.05;;;;;;;;;;4926367;28;20556;-79
2023/08/31 11:29:55;;;;;;;5.30;4.50;;;;;;;;;;4957160;28;20047;-79
2023/08/31 11:32:24;;;;;;;6.60;4.20;;;;;;;;;;4975086;28;20534;-80
2023/08/31 11:34:50;;;;;;;5.50;4.65;;;;;;;;;;4957385;28;20035;-79
2023/08/31 11:37:19;;;;;;;8.60;4.63;;;;;;;;;;4973293;28;20503;-80
2023/08/31 11:39:49;;;;;;;4.28;3.97;;;;;;;;;;4957913;28;20046;-80
2023/08/31 11:42:16;;;;;;;6.90;4.38;;;;;;;;;;4974431;28;20038;-79
2023/08/31 11:44:42;;;;;;;4.65;4.25;;;;;;;;;;4973162;28;20494;-79
2023/08/31 11:47:08;;;;;;;5.28;4.88;;;;;;;;;;4957241;28;20027;-78
2023/08/31 11:49:34;;;;;;;7.53;4.97;;;;;;;;;;4974577;28;20415;-79
2023/08/31 11:52:00;;;;;;;7.80;4.65;;;;;;;;;;4957064;28;20067;-79
2023/08/31 11:54:26;;;;;;;12.20;4.53;;;;;;;;;;4974489;28;20554;-79
2023/08/31 11:56:52;;;;;;;6.03;4.93;;;;;;;;;;4973885;28;20121;-79
2023/08/31 11:59:18;;;;;;;5.43;4.53;;;;;;;;;;4956963;28;20042;-80
2023/08/31 12:01:47;;;;;;;10.23;4.88;;;;;;;;;;4974126;28;20537;-80
2023/08/31 12:04:15;;;;;;;4.80;4.38;;;;;;;;;;4941181;28;20126;-79
2023/08/31 12:06:41;;;;;;;8.02;3.67;;;;;;;;;;4956888;28;20130;-80
2023/08/31 12:09:11;;;;;;;5.72;4.30;;;;;;;;;;4973060;28;20098;-79
2023/08/31 12:11:37;;;;;;;5.95;4.22;;;;;;;;;;4957496;28;20030;-79
2023/08/31 12:14:04;;;;;;;6.50;4.47;;;;;;;;;;4974076;28;20038;-79
2023/08/31 12:16:36;;;;;;;6.50;4.50;;;;;;;;;;4941331;28;20167;-78
2023/08/31 12:19:03;;;;;;;4.45;3.90;;;;;;;;;;4940818;28;20454;-77
2023/08/31 12:21:33;;;;;;;5.07;3.53;;;;;;;;;;4974276;28;20049;-80
2023/08/31 12:23:59;;;;;;;7.38;4.50;;;;;;;;;;4957787;28;20042;-79
2023/08/31 12:26:26;;;;;;;7.63;4.63;;;;;;;;;;4973426;28;20039;-79
2023/08/31 12:28:52;;;;;;;5.60;4.93;;;;;;;;;;4925090;28;20194;-79
2023/08/31 12:31:18;;;;;;;5.72;4.32;;;;;;;;;;4941200;28;20030;-79
2023/08/31 12:33:45;;;;;;;9.13;4.50;;;;;;;;;;4960525;28;20039;-79
2023/08/31 12:36:11;;;;;;;8.68;4.95;;;;;;;;;;4960069;28;20031;-79
2023/08/31 12:38:37;;;;;;;7.93;3.92;;;;;;;;;;4973949;28;20046;-79
2023/08/31 12:41:03;;;;;;;6.05;4.15;;;;;;;;;;4972688;28;20042;-80
2023/08/31 12:43:29;;;;;;;10.63;4.03;;;;;;;;;;4973952;28;20058;-79
2023/08/31 12:45:56;;;;;;;8.77;4.68;;;;;;;;;;4975030;28;20038;-81
2023/08/31 12:48:22;;;;;;;11.00;5.10;;;;;;;;;;4975946;28;20042;-80
2023/08/31 12:50:48;;;;;;;4.90;4.40;;;;;;;;;;4977311;28;20438;-79
2023/08/31 12:53:14;;;;;;;7.60;4.38;;;;;;;;;;4975811;28;20182;-79
2023/08/31 12:55:40;;;;;;;6.00;4.53;;;;;;;;;;4961902;28;20074;-79
2023/08/31 12:58:07;;;;;;;12.30;4.63;;;;;;;;;;4983958;28;20628;-80
2023/08/31 13:00:33;;;;;;;9.70;4.82;;;;;;;;;;4964498;28;20097;-78
2023/08/31 13:03:01;;;;;;;12.75;5.07;;;;;;;;;;4961682;28;20218;-79
2023/08/31 13:05:28;;;;;;;6.95;4.20;;;;;;;;;;4956362;29;20500;-80
2023/08/31 13:07:55;;;;;;;4.28;3.83;;;;;;;;;;4954941;29;20031;-79
2023/08/31 13:10:21;;;;;;;4.85;4.40;;;;;;;;;;4955101;28;20530;-77
2023/08/31 13:12:47;;;;;;;4.65;3.38;;;;;;;;;;4955304;29;20067;-80
2023/08/31 13:15:14;;;;;;;4.63;4.20;;;;;;;;;;4953504;29;20035;-77
2023/08/31 13:17:40;;;;;;;6.85;4.60;;;;;;;;;;4937592;29;20118;-78
2023/08/31 13:20:08;;;;;;;11.20;5.90;;;;;;;;;;4953651;29;20515;-80
2023/08/31 13:22:34;;;;;;;6.53;4.32;;;;;;;;;;4936439;29;20043;-78
2023/08/31 13:25:00;;;;;;;13.35;5.15;;;;;;;;;;4952833;29;20039;-79
2023/08/31 13:27:26;;;;;;;5.07;4.55;;;;;;;;;;4951913;29;20098;-80
2023/08/31 13:29:53;;;;;;;11.27;4.70;;;;;;;;;;4951703;29;20058;-79
2023/08/31 13:32:19;;;;;;;8.20;5.20;;;;;;;;;;4952812;28;20039;-80
2023/08/31 13:34:45;;;;;;;8.60;4.45;;;;;;;;;;4935865;29;20039;-78
2023/08/31 13:37:11;;;;;;;6.88;5.40;;;;;;;;;;4952794;29;20046;-80
2023/08/31 13:39:40;;;;;;;5.95;5.00;;;;;;;;;;4950708;28;20051;-79
2023/08/31 13:42:09;;;;;;;6.95;5.00;;;;;;;;;;4952166;28;20048;-79
2023/08/31 13:44:35;;;;;;;10.30;4.80;;;;;;;;;;4935779;29;20062;-79
2023/08/31 13:47:03;;;;;;;9.73;5.38;;;;;;;;;;4951112;29;20063;-81
2023/08/31 13:49:29;;;;;;;16.88;5.40;;;;;;;;;;4951456;28;20126;-79
2023/08/31 13:51:55;;;;;;;10.15;4.78;;;;;;;;;;4951252;29;20031;-79
2023/08/31 13:54:22;;;;;;;10.30;5.22;;;;;;;;;;4952781;28;20126;-80
2023/08/31 13:56:50;;;;;;;7.82;5.05;;;;;;;;;;4952689;29;20031;-80
2023/08/31 13:59:16;;;;;;;6.07;4.70;;;;;;;;;;4935465;29;20434;-79
2023/08/31 14:01:42;;;;;;;9.98;5.10;;;;;;;;;;4952602;28;20039;-79
2023/08/31 14:04:08;;;;;;;14.32;5.97;;;;;;;;;;4938767;28;20054;-80
2023/08/31 14:06:34;;;;;;;10.25;5.93;;;;;;;;;;4939055;28;20035;-79
2023/08/31 14:09:01;;;;;;;6.85;4.85;;;;;;;;;;4970525;28;20031;-80
2023/08/31 14:11:29;;;;;;;8.02;5.30;;;;;;;;;;4954645;28;20130;-79
2023/08/31 14:14:01;;;;;;;9.73;6.28;;;;;;;;;;4955027;28;20041;-79
2023/08/31 14:16:27;;;;;;;8.18;5.93;;;;;;;;;;4954251;28;20039;-80
2023/08/31 14:18:53;;;;;;;11.48;6.97;;;;;;;;;;4970504;28;20062;-80
2023/08/31 14:21:20;;;;;;;5.47;4.90;;;;;;;;;;4971354;28;20507;-79
2023/08/31 14:23:46;;;;;;;6.78;5.93;;;;;;;;;;4954354;28;20180;-81
2023/08/31 14:26:13;;;;;;;11.77;5.75;;;;;;;;;;4971602;28;20137;-78
2023/08/31 14:28:39;;;;;;;7.70;5.35;;;;;;;;;;4954838;28;20113;-80
2023/08/31 14:31:05;;;;;;;8.30;5.65;;;;;;;;;;4953980;28;20504;-80
2023/08/31 14:33:32;;;;;;;14.77;5.70;;;;;;;;;;4971536;28;20042;-79
2023/08/31 14:35:58;;;;;;;13.77;5.53;;;;;;;;;;4954142;28;20039;-79